sensor_id;sensor_type;location;lat;lon;timestamp;pressure;altitude;pressure_sealevel;temperature;humidity
30463;BME280;17256;43.618;25.336;2023-04-03T00:00:31;100042.94;;;11.85;95.38
30463;BME280;17256;43.618;25.336;2023-04-03T00:02:57;99852.50;;;10.88;95.23
30463;BME280;17256;43.618;25.336;2023-04-03T00:05:22;99687.72;;;9.74;95.83
30463;BME280;17256;43.618;25.336;2023-04-03T00:07:48;99752.34;;;10.21;95.55
30463;BME280;17256;43.618;25.336;2023-04-03T00:10:15;99846.75;;;10.58;96.23
30463;BME280;17256;43.618;25.336;2023-04-03T00:12:41;99619.97;;;9.16;95.98
30463;BME280;17256;43.618;25.336;2023-04-03T00:15:07;99724.56;;;9.84;95.68
30463;BME280;17256;43.618;25.336;2023-04-03T00:17:33;99597.69;;;9.00;96.38
30463;BME280;17256;43.618;25.336;2023-04-03T00:19:58;99859.59;;;10.64;96.85
30463;BME280;17256;43.618;25.336;2023-04-03T00:22:24;99892.06;;;10.81;97.17
30463;BME280;17256;43.618;25.336;2023-04-03T00:24:52;99665.84;;;9.41;97.14
30463;BME280;17256;43.618;25.336;2023-04-03T00:27:18;99811.38;;;10.30;97.44
30463;BME280;17256;43.618;25.336;2023-04-03T00:29:43;99812.03;;;10.26;98.16
30463;BME280;17256;43.618;25.336;2023-04-03T00:32:09;99765.91;;;9.90;98.99
30463;BME280;17256;43.618;25.336;2023-04-03T00:34:37;99634.09;;;9.13;99.31
30463;BME280;17256;43.618;25.336;2023-04-03T00:37:03;99616.66;;;9.01;99.65
30463;BME280;17256;43.618;25.336;2023-04-03T00:39:29;99833.09;;;10.38;100.00
30463;BME280;17256;43.618;25.336;2023-04-03T00:41:55;99976.47;;;11.12;100.00
30463;BME280;17256;43.618;25.336;2023-04-03T00:46:59;99827.66;;;10.25;100.00
30463;BME280;17256;43.618;25.336;2023-04-03T00:53:49;100014.41;;;11.41;100.00
30463;BME280;17256;43.618;25.336;2023-04-03T00:56:17;99678.94;;;9.39;100.00
30463;BME280;17256;43.618;25.336;2023-04-03T00:58:51;99849.13;;;10.48;100.00
30463;BME280;17256;43.618;25.336;2023-04-03T01:01:24;99860.06;;;10.55;100.00
30463;BME280;17256;43.618;25.336;2023-04-03T01:03:51;99551.41;;;8.58;100.00
30463;BME280;17256;43.618;25.336;2023-04-03T01:06:21;99540.91;;;8.49;100.00
30463;BME280;17256;43.618;25.336;2023-04-03T01:08:49;99745.31;;;9.67;100.00
30463;BME280;17256;43.618;25.336;2023-04-03T01:11:16;99924.16;;;10.87;100.00
30463;BME280;17256;43.618;25.336;2023-04-03T01:13:43;99972.66;;;11.13;100.00
30463;BME280;17256;43.618;25.336;2023-04-03T01:16:08;99827.63;;;10.32;100.00
30463;BME280;17256;43.618;25.336;2023-04-03T01:18:37;99825.75;;;10.26;100.00
30463;BME280;17256;43.618;25.336;2023-04-03T01:24:14;100014.59;;;11.46;100.00
30463;BME280;17256;43.618;25.336;2023-04-03T01:26:44;99980.63;;;11.27;100.00
30463;BME280;17256;43.618;25.336;2023-04-03T01:29:10;100008.25;;;11.46;100.00
30463;BME280;17256;43.618;25.336;2023-04-03T01:31:55;99832.50;;;10.30;100.00
30463;BME280;17256;43.618;25.336;2023-04-03T01:34:22;99820.91;;;10.28;100.00
30463;BME280;17256;43.618;25.336;2023-04-03T01:36:50;99709.25;;;9.57;100.00
30463;BME280;17256;43.618;25.336;2023-04-03T01:39:16;99755.16;;;9.81;100.00
30463;BME280;17256;43.618;25.336;2023-04-03T01:41:42;99831.03;;;10.27;100.00
30463;BME280;17256;43.618;25.336;2023-04-03T01:44:16;100008.06;;;11.34;100.00
30463;BME280;17256;43.618;25.336;2023-04-03T01:46:41;99814.56;;;10.14;100.00
30463;BME280;17256;43.618;25.336;2023-04-03T01:49:08;100008.56;;;11.24;100.00
30463;BME280;17256;43.618;25.336;2023-04-03T01:51:35;99834.66;;;10.08;100.00
30463;BME280;17256;43.618;25.336;2023-04-03T01:54:01;99983.72;;;10.99;100.00
30463;BME280;17256;43.618;25.336;2023-04-03T01:56:27;100042.81;;;11.22;100.00
30463;BME280;17256;43.618;25.336;2023-04-03T01:58:53;99812.75;;;9.81;100.00
30463;BME280;17256;43.618;25.336;2023-04-03T02:01:19;99835.69;;;10.07;100.00
30463;BME280;17256;43.618;25.336;2023-04-03T02:03:45;99992.81;;;10.93;100.00
30463;BME280;17256;43.618;25.336;2023-04-03T02:06:10;99748.06;;;9.41;100.00
30463;BME280;17256;43.618;25.336;2023-04-03T02:08:36;99807.06;;;9.76;100.00
30463;BME280;17256;43.618;25.336;2023-04-03T02:11:03;99871.97;;;10.15;100.00
30463;BME280;17256;43.618;25.336;2023-04-03T02:13:29;100037.19;;;10.97;100.00
30463;BME280;17256;43.618;25.336;2023-04-03T02:15:54;99861.66;;;9.91;100.00
30463;BME280;17256;43.618;25.336;2023-04-03T02:18:20;99803.53;;;9.49;100.00
30463;BME280;17256;43.618;25.336;2023-04-03T02:20:46;99885.13;;;9.94;100.00
30463;BME280;17256;43.618;25.336;2023-04-03T02:23:12;100033.78;;;11.01;100.00
30463;BME280;17256;43.618;25.336;2023-04-03T02:25:37;100003.88;;;10.67;100.00
30463;BME280;17256;43.618;25.336;2023-04-03T02:28:03;99850.09;;;9.82;100.00
30463;BME280;17256;43.618;25.336;2023-04-03T02:30:29;99768.31;;;9.27;100.00
30463;BME280;17256;43.618;25.336;2023-04-03T02:32:55;100037.41;;;10.95;100.00
30463;BME280;17256;43.618;25.336;2023-04-03T02:35:21;100034.22;;;10.98;100.00
30463;BME280;17256;43.618;25.336;2023-04-03T02:37:48;99725.56;;;9.06;100.00
30463;BME280;17256;43.618;25.336;2023-04-03T02:40:13;99930.66;;;10.34;100.00
30463;BME280;17256;43.618;25.336;2023-04-03T02:42:40;99812.13;;;9.66;100.00
30463;BME280;17256;43.618;25.336;2023-04-03T02:45:06;99842.72;;;9.76;100.00
30463;BME280;17256;43.618;25.336;2023-04-03T02:47:32;100030.22;;;10.94;100.00
30463;BME280;17256;43.618;25.336;2023-04-03T02:49:57;99844.41;;;9.77;100.00
30463;BME280;17256;43.618;25.336;2023-04-03T02:52:23;99946.03;;;10.48;100.00
30463;BME280;17256;43.618;25.336;2023-04-03T02:54:50;99755.25;;;9.15;100.00
30463;BME280;17256;43.618;25.336;2023-04-03T02:57:16;99884.88;;;9.88;100.00
30463;BME280;17256;43.618;25.336;2023-04-03T02:59:42;100027.94;;;10.65;100.00
30463;BME280;17256;43.618;25.336;2023-04-03T03:02:10;100065.75;;;10.83;100.00
30463;BME280;17256;43.618;25.336;2023-04-03T03:04:36;99812.78;;;9.29;100.00
30463;BME280;17256;43.618;25.336;2023-04-03T03:07:03;99863.19;;;9.54;100.00
30463;BME280;17256;43.618;25.336;2023-04-03T03:09:29;100072.50;;;10.80;100.00
30463;BME280;17256;43.618;25.336;2023-04-03T03:11:56;100033.69;;;10.50;100.00
30463;BME280;17256;43.618;25.336;2023-04-03T03:14:23;99805.19;;;9.11;100.00
30463;BME280;17256;43.618;25.336;2023-04-03T03:16:49;100061.53;;;10.73;100.00
30463;BME280;17256;43.618;25.336;2023-04-03T03:19:14;99841.25;;;9.41;100.00
30463;BME280;17256;43.618;25.336;2023-04-03T03:21:40;99868.66;;;9.61;100.00
30463;BME280;17256;43.618;25.336;2023-04-03T03:24:06;99877.09;;;9.72;100.00
30463;BME280;17256;43.618;25.336;2023-04-03T03:26:32;99660.00;;;8.38;100.00
30463;BME280;17256;43.618;25.336;2023-04-03T03:28:58;99821.66;;;9.31;100.00
30463;BME280;17256;43.618;25.336;2023-04-03T03:31:23;99903.69;;;9.78;100.00
30463;BME280;17256;43.618;25.336;2023-04-03T03:33:49;100042.34;;;10.67;100.00
30463;BME280;17256;43.618;25.336;2023-04-03T03:36:14;99970.78;;;10.22;100.00
30463;BME280;17256;43.618;25.336;2023-04-03T03:38:40;99826.06;;;9.38;100.00
30463;BME280;17256;43.618;25.336;2023-04-03T03:41:06;99714.38;;;8.68;100.00
30463;BME280;17256;43.618;25.336;2023-04-03T03:43:33;99892.72;;;9.72;100.00
30463;BME280;17256;43.618;25.336;2023-04-03T03:45:59;99821.22;;;9.27;100.00
30463;BME280;17256;43.618;25.336;2023-04-03T03:48:26;99849.69;;;9.46;100.00
30463;BME280;17256;43.618;25.336;2023-04-03T03:50:51;99934.03;;;9.90;100.00
30463;BME280;17256;43.618;25.336;2023-04-03T03:53:20;99810.44;;;9.06;100.00
30463;BME280;17256;43.618;25.336;2023-04-03T03:55:48;99828.56;;;9.00;100.00
30463;BME280;17256;43.618;25.336;2023-04-03T03:58:14;99859.38;;;9.29;100.00
30463;BME280;17256;43.618;25.336;2023-04-03T04:00:41;100032.41;;;10.33;100.00
30463;BME280;17256;43.618;25.336;2023-04-03T04:03:07;99770.56;;;8.63;100.00
30463;BME280;17256;43.618;25.336;2023-04-03T04:05:33;99944.38;;;9.68;100.00
30463;BME280;17256;43.618;25.336;2023-04-03T04:08:00;100033.69;;;10.24;100.00
30463;BME280;17256;43.618;25.336;2023-04-03T04:10:26;100024.41;;;10.25;100.00
30463;BME280;17256;43.618;25.336;2023-04-03T04:12:52;99834.91;;;9.01;100.00
30463;BME280;17256;43.618;25.336;2023-04-03T04:15:21;99855.75;;;9.15;100.00
30463;BME280;17256;43.618;25.336;2023-04-03T04:17:48;99792.72;;;8.69;100.00
30463;BME280;17256;43.618;25.336;2023-04-03T04:20:14;100005.81;;;9.94;100.00
30463;BME280;17256;43.618;25.336;2023-04-03T04:22:40;99793.94;;;8.66;100.00
30463;BME280;17256;43.618;25.336;2023-04-03T04:25:06;99781.50;;;8.63;100.00
30463;BME280;17256;43.618;25.336;2023-04-03T04:27:33;99865.03;;;9.07;100.00
30463;BME280;17256;43.618;25.336;2023-04-03T04:29:59;100013.81;;;10.15;100.00
30463;BME280;17256;43.618;25.336;2023-04-03T04:32:26;99850.09;;;9.36;100.00
30463;BME280;17256;43.618;25.336;2023-04-03T04:34:56;99813.84;;;9.41;100.00
30463;BME280;17256;43.618;25.336;2023-04-03T04:37:22;99811.75;;;9.69;100.00
30463;BME280;17256;43.618;25.336;2023-04-03T04:39:48;100058.06;;;11.62;100.00
30463;BME280;17256;43.618;25.336;2023-04-03T04:42:14;99908.06;;;10.97;100.00
30463;BME280;17256;43.618;25.336;2023-04-03T04:44:40;99797.16;;;10.53;100.00
30463;BME280;17256;43.618;25.336;2023-04-03T04:47:12;99632.50;;;9.57;100.00
30463;BME280;17256;43.618;25.336;2023-04-03T04:49:38;99745.22;;;10.52;100.00
30463;BME280;17256;43.618;25.336;2023-04-03T04:52:05;99750.81;;;10.70;100.00
30463;BME280;17256;43.618;25.336;2023-04-03T04:54:31;99917.31;;;11.72;100.00
30463;BME280;17256;43.618;25.336;2023-04-03T04:56:57;99888.88;;;11.85;98.43
30463;BME280;17256;43.618;25.336;2023-04-03T04:59:23;99739.63;;;10.96;97.88
30463;BME280;17256;43.618;25.336;2023-04-03T05:01:52;99888.59;;;12.18;95.52
30463;BME280;17256;43.618;25.336;2023-04-03T05:04:18;99962.75;;;12.74;93.10
30463;BME280;17256;43.618;25.336;2023-04-03T05:06:48;99920.50;;;12.80;91.69
30463;BME280;17256;43.618;25.336;2023-04-03T05:09:18;100078.09;;;13.99;88.77
30463;BME280;17256;43.618;25.336;2023-04-03T05:11:46;100012.38;;;13.47;88.52
30463;BME280;17256;43.618;25.336;2023-04-03T05:14:25;100100.91;;;14.06;87.89
30463;BME280;17256;43.618;25.336;2023-04-03T05:17:02;99985.38;;;13.79;85.74
30463;BME280;17256;43.618;25.336;2023-04-03T05:19:40;99849.44;;;13.01;84.15
30463;BME280;17256;43.618;25.336;2023-04-03T05:22:08;100097.34;;;14.47;84.01
30463;BME280;17256;43.618;25.336;2023-04-03T05:24:36;99849.41;;;12.71;83.24
30463;BME280;17256;43.618;25.336;2023-04-03T05:27:03;99882.47;;;12.71;85.00
30463;BME280;17256;43.618;25.336;2023-04-03T05:29:32;99976.28;;;13.31;84.75
30463;BME280;17256;43.618;25.336;2023-04-03T05:31:59;100070.78;;;13.74;86.61
30463;BME280;17256;43.618;25.336;2023-04-03T05:34:26;99991.75;;;13.13;87.23
30463;BME280;17256;43.618;25.336;2023-04-03T05:36:54;100009.22;;;13.07;88.51
30463;BME280;17256;43.618;25.336;2023-04-03T05:39:20;99867.22;;;12.13;89.62
30463;BME280;17256;43.618;25.336;2023-04-03T05:41:48;100127.91;;;13.19;92.85
30463;BME280;17256;43.618;25.336;2023-04-03T05:44:14;100033.22;;;12.39;94.81
30463;BME280;17256;43.618;25.336;2023-04-03T05:46:42;99951.28;;;12.16;95.04
30463;BME280;17256;43.618;25.336;2023-04-03T05:49:09;99894.50;;;11.96;93.63
30463;BME280;17256;43.618;25.336;2023-04-03T05:51:37;100142.84;;;13.05;94.63
30463;BME280;17256;43.618;25.336;2023-04-03T05:54:17;99942.31;;;11.70;95.15
30463;BME280;17256;43.618;25.336;2023-04-03T05:56:44;99945.66;;;11.73;95.85
30463;BME280;17256;43.618;25.336;2023-04-03T05:59:10;100073.97;;;13.23;92.62
30463;BME280;17256;43.618;25.336;2023-04-03T06:01:37;100149.91;;;14.10;89.94
30463;BME280;17256;43.618;25.336;2023-04-03T06:04:03;99982.66;;;13.31;86.28
30463;BME280;17256;43.618;25.336;2023-04-03T06:09:14;100012.84;;;14.28;80.88
30463;BME280;17256;43.618;25.336;2023-04-03T06:11:41;100005.28;;;14.35;77.95
30463;BME280;17256;43.618;25.336;2023-04-03T06:14:08;99973.19;;;13.99;78.86
30463;BME280;17256;43.618;25.336;2023-04-03T06:16:34;99969.34;;;13.88;78.72
30463;BME280;17256;43.618;25.336;2023-04-03T06:19:00;100035.03;;;14.63;76.59
30463;BME280;17256;43.618;25.336;2023-04-03T06:21:26;100057.00;;;14.46;76.42
30463;BME280;17256;43.618;25.336;2023-04-03T06:23:52;99991.66;;;13.98;76.84
30463;BME280;17256;43.618;25.336;2023-04-03T06:26:18;99996.50;;;13.73;79.20
30463;BME280;17256;43.618;25.336;2023-04-03T06:28:43;99912.94;;;13.54;79.04
30463;BME280;17256;43.618;25.336;2023-04-03T06:31:09;99940.88;;;13.46;78.49
30463;BME280;17256;43.618;25.336;2023-04-03T06:33:34;99914.03;;;13.05;79.85
30463;BME280;17256;43.618;25.336;2023-04-03T06:36:03;100167.88;;;14.50;81.66
30463;BME280;17256;43.618;25.336;2023-04-03T06:38:30;99982.03;;;13.11;82.66
30463;BME280;17256;43.618;25.336;2023-04-03T06:40:55;99979.22;;;12.99;84.69
30463;BME280;17256;43.618;25.336;2023-04-03T06:43:22;100157.06;;;14.30;84.98
30463;BME280;17256;43.618;25.336;2023-04-03T06:45:48;100033.28;;;13.37;85.64
30463;BME280;17256;43.618;25.336;2023-04-03T06:48:13;100019.97;;;13.15;86.49
30463;BME280;17256;43.618;25.336;2023-04-03T06:50:39;100154.06;;;14.01;87.04
30463;BME280;17256;43.618;25.336;2023-04-03T06:53:05;99944.31;;;12.75;87.20
30463;BME280;17256;43.618;25.336;2023-04-03T06:55:32;100106.28;;;13.52;88.52
30463;BME280;17256;43.618;25.336;2023-04-03T06:57:58;99937.16;;;12.30;90.05
30463;BME280;17256;43.618;25.336;2023-04-03T07:00:23;100054.53;;;13.11;90.59
30463;BME280;17256;43.618;25.336;2023-04-03T07:02:50;100044.53;;;13.17;91.17
30463;BME280;17256;43.618;25.336;2023-04-03T07:05:15;99934.59;;;12.72;89.70
30463;BME280;17256;43.618;25.336;2023-04-03T07:07:41;100015.59;;;13.26;89.97
30463;BME280;17256;43.618;25.336;2023-04-03T07:10:07;100038.56;;;13.38;90.30
30463;BME280;17256;43.618;25.336;2023-04-03T07:12:33;100046.59;;;13.58;92.49
30463;BME280;17256;43.618;25.336;2023-04-03T07:14:59;100151.25;;;14.38;90.16
30463;BME280;17256;43.618;25.336;2023-04-03T07:17:24;99917.66;;;13.05;88.64
30463;BME280;17256;43.618;25.336;2023-04-03T07:19:51;100123.38;;;14.39;87.77
30463;BME280;17256;43.618;25.336;2023-04-03T07:22:17;99919.56;;;13.05;87.00
30463;BME280;17256;43.618;25.336;2023-04-03T07:24:43;99899.38;;;12.74;87.15
30463;BME280;17256;43.618;25.336;2023-04-03T07:27:09;100023.41;;;13.47;86.99
30463;BME280;17256;43.618;25.336;2023-04-03T07:29:35;99931.84;;;12.90;86.48
30463;BME280;17256;43.618;25.336;2023-04-03T07:32:01;99978.06;;;13.07;87.72
30463;BME280;17256;43.618;25.336;2023-04-03T07:34:27;99870.94;;;12.44;87.93
30463;BME280;17256;43.618;25.336;2023-04-03T07:36:53;100178.31;;;14.29;89.35
30463;BME280;17256;43.618;25.336;2023-04-03T07:39:18;99922.31;;;13.05;87.96
30463;BME280;17256;43.618;25.336;2023-04-03T07:41:44;99984.03;;;13.40;86.70
30463;BME280;17256;43.618;25.336;2023-04-03T07:44:11;99920.94;;;13.14;86.35
30463;BME280;17256;43.618;25.336;2023-04-03T07:46:37;100058.69;;;13.87;86.69
30463;BME280;17256;43.618;25.336;2023-04-03T07:49:03;100045.53;;;13.89;85.92
30463;BME280;17256;43.618;25.336;2023-04-03T07:51:29;100070.91;;;14.09;85.15
30463;BME280;17256;43.618;25.336;2023-04-03T07:53:55;99867.75;;;12.95;84.15
30463;BME280;17256;43.618;25.336;2023-04-03T07:56:21;99999.22;;;13.91;84.24
30463;BME280;17256;43.618;25.336;2023-04-03T07:58:48;100029.16;;;14.18;82.87
30463;BME280;17256;43.618;25.336;2023-04-03T08:01:13;100042.75;;;14.19;80.80
30463;BME280;17256;43.618;25.336;2023-04-03T08:03:39;100052.56;;;14.68;78.35
30463;BME280;17256;43.618;25.336;2023-04-03T08:06:07;100220.69;;;15.48;77.84
30463;BME280;17256;43.618;25.336;2023-04-03T08:08:33;99941.00;;;13.93;79.35
30463;BME280;17256;43.618;25.336;2023-04-03T08:11:00;99955.94;;;14.38;78.84
30463;BME280;17256;43.618;25.336;2023-04-03T08:13:28;100061.22;;;15.19;74.97
30463;BME280;17256;43.618;25.336;2023-04-03T08:15:55;100026.72;;;14.98;74.61
30463;BME280;17256;43.618;25.336;2023-04-03T08:18:23;99978.47;;;15.05;73.44
30463;BME280;17256;43.618;25.336;2023-04-03T08:20:51;100052.28;;;15.28;73.67
30463;BME280;17256;43.618;25.336;2023-04-03T08:23:17;100040.41;;;15.16;73.80
30463;BME280;17256;43.618;25.336;2023-04-03T08:25:43;99965.72;;;14.64;73.96
30463;BME280;17256;43.618;25.336;2023-04-03T08:28:11;100003.41;;;14.94;74.33
30463;BME280;17256;43.618;25.336;2023-04-03T08:30:42;100047.72;;;15.22;73.87
30463;BME280;17256;43.618;25.336;2023-04-03T08:33:08;100053.22;;;15.34;73.55
30463;BME280;17256;43.618;25.336;2023-04-03T08:35:38;100046.69;;;15.63;72.48
30463;BME280;17256;43.618;25.336;2023-04-03T08:38:04;99994.44;;;15.67;71.01
30463;BME280;17256;43.618;25.336;2023-04-03T08:40:30;99963.56;;;15.06;70.16
30463;BME280;17256;43.618;25.336;2023-04-03T08:48:12;100018.38;;;15.73;69.74
30463;BME280;17256;43.618;25.336;2023-04-03T08:50:43;100027.69;;;16.12;68.54
30463;BME280;17256;43.618;25.336;2023-04-03T08:53:36;100196.59;;;17.65;66.95
30463;BME280;17256;43.618;25.336;2023-04-03T08:56:08;99974.97;;;16.74;65.00
30463;BME280;17256;43.618;25.336;2023-04-03T09:01:37;100174.88;;;18.00;64.76
30463;BME280;17256;43.618;25.336;2023-04-03T09:04:10;100172.44;;;16.93;68.13
30463;BME280;17256;43.618;25.336;2023-04-03T09:06:37;99945.13;;;15.81;68.27
30463;BME280;17256;43.618;25.336;2023-04-03T09:14:33;100179.22;;;17.02;67.53
30463;BME280;17256;43.618;25.336;2023-04-03T09:17:09;100184.75;;;16.40;69.37
30463;BME280;17256;43.618;25.336;2023-04-03T09:19:55;100185.19;;;16.49;70.67
30463;BME280;17256;43.618;25.336;2023-04-03T09:22:28;99961.69;;;15.35;69.08
30463;BME280;17256;43.618;25.336;2023-04-03T09:25:12;99975.59;;;15.81;68.24
30463;BME280;17256;43.618;25.336;2023-04-03T09:27:39;100031.69;;;15.88;67.60
30463;BME280;17256;43.618;25.336;2023-04-03T09:30:05;99956.44;;;15.51;68.68
30463;BME280;17256;43.618;25.336;2023-04-03T09:32:34;100076.03;;;16.67;66.20
30463;BME280;17256;43.618;25.336;2023-04-03T09:37:52;99999.84;;;16.69;64.62
30463;BME280;17256;43.618;25.336;2023-04-03T09:40:31;100033.34;;;16.51;66.16
30463;BME280;17256;43.618;25.336;2023-04-03T09:43:01;100070.41;;;16.78;65.99
30463;BME280;17256;43.618;25.336;2023-04-03T09:48:38;100002.00;;;16.17;65.27
30463;BME280;17256;43.618;25.336;2023-04-03T09:51:03;100028.81;;;16.61;65.15
30463;BME280;17256;43.618;25.336;2023-04-03T09:55:55;100015.84;;;16.84;63.03
30463;BME280;17256;43.618;25.336;2023-04-03T09:58:26;100160.75;;;17.63;65.77
30463;BME280;17256;43.618;25.336;2023-04-03T10:01:00;99945.09;;;16.81;66.07
30463;BME280;17256;43.618;25.336;2023-04-03T10:05:52;99955.56;;;16.96;65.58
30463;BME280;17256;43.618;25.336;2023-04-03T10:08:22;99947.31;;;17.01;65.93
30463;BME280;17256;43.618;25.336;2023-04-03T10:11:08;99992.00;;;16.83;66.31
30463;BME280;17256;43.618;25.336;2023-04-03T10:13:35;99932.03;;;17.20;65.15
30463;BME280;17256;43.618;25.336;2023-04-03T10:16:06;100003.06;;;17.65;64.08
30463;BME280;17256;43.618;25.336;2023-04-03T10:18:46;100164.28;;;18.68;63.77
30463;BME280;17256;43.618;25.336;2023-04-03T10:29:43;100109.88;;;18.01;64.57
30463;BME280;17256;43.618;25.336;2023-04-03T10:40:29;100150.66;;;17.96;65.40
30463;BME280;17256;43.618;25.336;2023-04-03T10:43:09;100152.13;;;18.03;66.16
30463;BME280;17256;43.618;25.336;2023-04-03T10:56:52;100124.94;;;17.62;67.61
30463;BME280;17256;43.618;25.336;2023-04-03T10:59:58;100122.81;;;18.12;65.93
30463;BME280;17256;43.618;25.336;2023-04-03T11:02:45;99753.00;;;15.98;65.84
30463;BME280;17256;43.618;25.336;2023-04-03T11:06:08;100110.78;;;18.07;67.13
30463;BME280;17256;43.618;25.336;2023-04-03T11:11:44;99778.91;;;16.31;65.59
30463;BME280;17256;43.618;25.336;2023-04-03T11:14:56;99976.56;;;17.79;64.71
30463;BME280;17256;43.618;25.336;2023-04-03T11:17:37;99959.28;;;17.72;63.80
30463;BME280;17256;43.618;25.336;2023-04-03T11:22:47;99924.97;;;17.35;63.71
30463;BME280;17256;43.618;25.336;2023-04-03T11:26:01;99711.22;;;15.61;65.22
30463;BME280;17256;43.618;25.336;2023-04-03T11:29:30;100000.16;;;17.77;64.50
30463;BME280;17256;43.618;25.336;2023-04-03T11:34:36;99940.19;;;17.54;65.20
30463;BME280;17256;43.618;25.336;2023-04-03T11:37:33;100081.91;;;18.35;63.50
30463;BME280;17256;43.618;25.336;2023-04-03T11:40:08;99881.44;;;17.35;63.63
30463;BME280;17256;43.618;25.336;2023-04-03T11:42:48;100008.41;;;18.26;62.97
30463;BME280;17256;43.618;25.336;2023-04-03T11:48:29;100077.00;;;18.74;64.07
30463;BME280;17256;43.618;25.336;2023-04-03T11:50:47;99845.09;;;17.37;61.81
30463;BME280;17256;43.618;25.336;2023-04-03T11:58:24;100063.06;;;18.69;62.25
30463;BME280;17256;43.618;25.336;2023-04-03T12:08:29;100057.03;;;18.55;62.10
30463;BME280;17256;43.618;25.336;2023-04-03T12:16:42;100055.09;;;18.56;62.72
30463;BME280;17256;43.618;25.336;2023-04-03T12:29:20;99912.47;;;17.59;62.08
30463;BME280;17256;43.618;25.336;2023-04-03T12:32:04;99847.81;;;17.10;62.88
30463;BME280;17256;43.618;25.336;2023-04-03T12:45:44;100053.75;;;17.99;66.25
30463;BME280;17256;43.618;25.336;2023-04-03T12:48:24;99827.78;;;16.59;66.62
30463;BME280;17256;43.618;25.336;2023-04-03T12:50:51;99865.00;;;16.85;66.88
30463;BME280;17256;43.618;25.336;2023-04-03T12:53:34;99861.66;;;16.83;66.63
30463;BME280;17256;43.618;25.336;2023-04-03T12:56:31;99821.22;;;16.43;66.62
30463;BME280;17256;43.618;25.336;2023-04-03T12:59:25;99939.84;;;17.02;67.80
30463;BME280;17256;43.618;25.336;2023-04-03T13:01:56;99884.66;;;16.61;68.36
30463;BME280;17256;43.618;25.336;2023-04-03T13:04:23;99899.78;;;16.71;68.83
30463;BME280;17256;43.618;25.336;2023-04-03T13:06:49;99876.34;;;16.61;68.83
30463;BME280;17256;43.618;25.336;2023-04-03T13:09:27;99857.94;;;16.55;68.98
30463;BME280;17256;43.618;25.336;2023-04-03T13:14:25;99886.09;;;16.47;68.34
30463;BME280;17256;43.618;25.336;2023-04-03T13:19:30;99890.50;;;16.43;67.95
30463;BME280;17256;43.618;25.336;2023-04-03T13:24:24;99822.66;;;15.90;67.75
30463;BME280;17256;43.618;25.336;2023-04-03T13:26:51;100033.91;;;17.25;68.33
30463;BME280;17256;43.618;25.336;2023-04-03T13:29:29;99884.72;;;16.28;68.22
30463;BME280;17256;43.618;25.336;2023-04-03T13:31:56;99780.88;;;15.58;68.11
30463;BME280;17256;43.618;25.336;2023-04-03T13:34:23;99844.72;;;16.02;68.12
30463;BME280;17256;43.618;25.336;2023-04-03T13:41:52;99957.78;;;16.94;68.60
30463;BME280;17256;43.618;25.336;2023-04-03T13:44:38;100022.03;;;17.30;69.64
30463;BME280;17256;43.618;25.336;2023-04-03T13:49:41;100022.03;;;17.30;70.13
30463;BME280;17256;43.618;25.336;2023-04-03T13:52:40;100019.72;;;17.43;70.51
30463;BME280;17256;43.618;25.336;2023-04-03T13:55:25;100017.22;;;17.42;72.46
30463;BME280;17256;43.618;25.336;2023-04-03T13:57:52;100017.75;;;17.39;73.01
30463;BME280;17256;43.618;25.336;2023-04-03T14:00:29;99865.38;;;16.33;75.72
30463;BME280;17256;43.618;25.336;2023-04-03T14:02:56;99732.31;;;15.51;76.79
30463;BME280;17256;43.618;25.336;2023-04-03T14:05:23;100018.06;;;17.20;76.84
30463;BME280;17256;43.618;25.336;2023-04-03T14:07:50;99853.06;;;16.24;78.01
30463;BME280;17256;43.618;25.336;2023-04-03T14:10:16;100009.50;;;17.05;79.63
30463;BME280;17256;43.618;25.336;2023-04-03T14:12:41;99767.13;;;15.47;80.24
30463;BME280;17256;43.618;25.336;2023-04-03T14:15:20;99842.19;;;16.00;80.64
30463;BME280;17256;43.618;25.336;2023-04-03T14:17:47;99822.41;;;15.92;81.39
30463;BME280;17256;43.618;25.336;2023-04-03T14:20:17;99989.50;;;17.03;82.38
30463;BME280;17256;43.618;25.336;2023-04-03T14:22:43;99862.81;;;16.10;83.13
30463;BME280;17256;43.618;25.336;2023-04-03T14:25:09;99907.44;;;16.47;82.52
30463;BME280;17256;43.618;25.336;2023-04-03T14:27:38;99757.47;;;15.49;83.79
30463;BME280;17256;43.618;25.336;2023-04-03T14:30:06;99891.34;;;16.27;84.98
30463;BME280;17256;43.618;25.336;2023-04-03T14:32:33;99772.31;;;15.43;86.12
30463;BME280;17256;43.618;25.336;2023-04-03T14:34:59;99804.75;;;15.48;86.55
30463;BME280;17256;43.618;25.336;2023-04-03T14:37:28;99821.06;;;15.61;88.12
30463;BME280;17256;43.618;25.336;2023-04-03T14:39:55;99832.28;;;15.37;89.17
30463;BME280;17256;43.618;25.336;2023-04-03T14:42:28;99985.13;;;16.35;91.27
30463;BME280;17256;43.618;25.336;2023-04-03T14:44:54;99724.22;;;14.65;92.37
30463;BME280;17256;43.618;25.336;2023-04-03T14:47:22;99812.38;;;15.24;93.12
30463;BME280;17256;43.618;25.336;2023-04-03T14:49:49;99855.06;;;15.45;93.85
30463;BME280;17256;43.618;25.336;2023-04-03T14:54:49;99765.19;;;14.85;94.32
30463;BME280;17256;43.618;25.336;2023-04-03T14:57:16;99828.53;;;15.15;95.11
30463;BME280;17256;43.618;25.336;2023-04-03T14:59:43;99791.06;;;14.79;95.98
30463;BME280;17256;43.618;25.336;2023-04-03T15:04:49;99850.09;;;15.01;97.81
30463;BME280;17256;43.618;25.336;2023-04-03T15:07:15;99825.66;;;14.82;99.09
30463;BME280;17256;43.618;25.336;2023-04-03T15:09:41;99714.47;;;14.23;99.50
30463;BME280;17256;43.618;25.336;2023-04-03T15:12:08;99834.16;;;14.92;97.16